sensor_id;sensor_type;location;lat;lon;timestamp;P1;durP1;ratioP1;P2;durP2;ratioP2
25503;SDS011;13410;52.114;5.718;2024-03-06T00:00:31;47.22;;;29.42;;
25503;SDS011;13410;52.114;5.718;2024-03-06T00:02:58;45.55;;;28.10;;
25503;SDS011;13410;52.114;5.718;2024-03-06T00:05:25;43.53;;;28.13;;
25503;SDS011;13410;52.114;5.718;2024-03-06T00:07:50;44.97;;;29.42;;
25503;SDS011;13410;52.114;5.718;2024-03-06T00:10:16;56.95;;;37.38;;
25503;SDS011;13410;52.114;5.718;2024-03-06T00:12:42;56.92;;;37.85;;
25503;SDS011;13410;52.114;5.718;2024-03-06T00:15:07;48.95;;;30.02;;
25503;SDS011;13410;52.114;5.718;2024-03-06T00:17:33;45.95;;;30.27;;
25503;SDS011;13410;52.114;5.718;2024-03-06T00:19:59;43.85;;;29.02;;
25503;SDS011;13410;52.114;5.718;2024-03-06T00:22:24;45.20;;;29.30;;
25503;SDS011;13410;52.114;5.718;2024-03-06T00:24:50;47.38;;;30.55;;
25503;SDS011;13410;52.114;5.718;2024-03-06T00:27:16;43.10;;;30.02;;
25503;SDS011;13410;52.114;5.718;2024-03-06T00:29:42;45.63;;;28.90;;
25503;SDS011;13410;52.114;5.718;2024-03-06T00:32:07;43.90;;;27.80;;
25503;SDS011;13410;52.114;5.718;2024-03-06T00:34:34;44.58;;;28.80;;
25503;SDS011;13410;52.114;5.718;2024-03-06T00:37:00;45.80;;;29.00;;
25503;SDS011;13410;52.114;5.718;2024-03-06T00:39:25;42.25;;;27.30;;
25503;SDS011;13410;52.114;5.718;2024-03-06T00:41:51;46.15;;;27.90;;
25503;SDS011;13410;52.114;5.718;2024-03-06T00:44:17;41.67;;;27.17;;
25503;SDS011;13410;52.114;5.718;2024-03-06T00:46:42;43.38;;;28.20;;
25503;SDS011;13410;52.114;5.718;2024-03-06T00:49:08;45.47;;;29.15;;
25503;SDS011;13410;52.114;5.718;2024-03-06T00:51:34;42.92;;;27.70;;
25503;SDS011;13410;52.114;5.718;2024-03-06T00:54:02;46.83;;;29.67;;
25503;SDS011;13410;52.114;5.718;2024-03-06T00:56:28;45.03;;;29.05;;
25503;SDS011;13410;52.114;5.718;2024-03-06T00:58:54;43.15;;;27.92;;
25503;SDS011;13410;52.114;5.718;2024-03-06T01:01:20;47.35;;;29.58;;
25503;SDS011;13410;52.114;5.718;2024-03-06T01:03:46;45.78;;;28.20;;
25503;SDS011;13410;52.114;5.718;2024-03-06T01:06:12;43.30;;;27.90;;
25503;SDS011;13410;52.114;5.718;2024-03-06T01:08:38;45.40;;;29.15;;
25503;SDS011;13410;52.114;5.718;2024-03-06T01:11:04;48.35;;;29.67;;
25503;SDS011;13410;52.114;5.718;2024-03-06T01:13:30;44.63;;;27.98;;
25503;SDS011;13410;52.114;5.718;2024-03-06T01:15:56;47.85;;;28.58;;
25503;SDS011;13410;52.114;5.718;2024-03-06T01:18:21;47.83;;;30.13;;
25503;SDS011;13410;52.114;5.718;2024-03-06T01:20:47;47.42;;;29.92;;
25503;SDS011;13410;52.114;5.718;2024-03-06T01:23:12;47.42;;;28.95;;
25503;SDS011;13410;52.114;5.718;2024-03-06T01:25:38;47.72;;;29.45;;
25503;SDS011;13410;52.114;5.718;2024-03-06T01:28:05;48.50;;;31.42;;
25503;SDS011;13410;52.114;5.718;2024-03-06T01:30:31;49.08;;;31.50;;
25503;SDS011;13410;52.114;5.718;2024-03-06T01:32:58;53.95;;;33.55;;
25503;SDS011;13410;52.114;5.718;2024-03-06T01:35:23;51.15;;;30.80;;
25503;SDS011;13410;52.114;5.718;2024-03-06T01:37:49;49.45;;;30.35;;
25503;SDS011;13410;52.114;5.718;2024-03-06T01:40:15;46.78;;;29.30;;
25503;SDS011;13410;52.114;5.718;2024-03-06T01:42:40;49.05;;;30.90;;
25503;SDS011;13410;52.114;5.718;2024-03-06T01:45:06;48.85;;;29.70;;
25503;SDS011;13410;52.114;5.718;2024-03-06T01:47:32;46.88;;;29.75;;
25503;SDS011;13410;52.114;5.718;2024-03-06T01:49:59;49.35;;;29.83;;
25503;SDS011;13410;52.114;5.718;2024-03-06T01:52:24;49.65;;;30.55;;
25503;SDS011;13410;52.114;5.718;2024-03-06T01:54:52;47.03;;;29.67;;
25503;SDS011;13410;52.114;5.718;2024-03-06T01:57:19;45.47;;;29.40;;
25503;SDS011;13410;52.114;5.718;2024-03-06T01:59:45;46.25;;;29.38;;
25503;SDS011;13410;52.114;5.718;2024-03-06T02:02:11;44.83;;;27.88;;
25503;SDS011;13410;52.114;5.718;2024-03-06T02:04:37;44.38;;;28.00;;
25503;SDS011;13410;52.114;5.718;2024-03-06T02:07:03;47.63;;;28.92;;
25503;SDS011;13410;52.114;5.718;2024-03-06T02:09:33;47.35;;;28.48;;
25503;SDS011;13410;52.114;5.718;2024-03-06T02:11:59;43.97;;;27.88;;
25503;SDS011;13410;52.114;5.718;2024-03-06T02:14:25;45.50;;;28.17;;
25503;SDS011;13410;52.114;5.718;2024-03-06T02:16:52;45.33;;;27.15;;
25503;SDS011;13410;52.114;5.718;2024-03-06T02:19:17;46.55;;;28.67;;
25503;SDS011;13410;52.114;5.718;2024-03-06T02:21:43;42.33;;;27.20;;
25503;SDS011;13410;52.114;5.718;2024-03-06T02:24:09;37.65;;;24.67;;
25503;SDS011;13410;52.114;5.718;2024-03-06T02:26:36;41.88;;;25.90;;
25503;SDS011;13410;52.114;5.718;2024-03-06T02:29:03;44.00;;;26.52;;
25503;SDS011;13410;52.114;5.718;2024-03-06T02:31:30;41.53;;;26.65;;
25503;SDS011;13410;52.114;5.718;2024-03-06T02:33:56;43.35;;;26.67;;
25503;SDS011;13410;52.114;5.718;2024-03-06T02:36:23;40.75;;;26.25;;
25503;SDS011;13410;52.114;5.718;2024-03-06T02:38:49;40.45;;;25.60;;
25503;SDS011;13410;52.114;5.718;2024-03-06T02:41:15;42.13;;;26.25;;
25503;SDS011;13410;52.114;5.718;2024-03-06T02:43:41;41.35;;;25.83;;
25503;SDS011;13410;52.114;5.718;2024-03-06T02:46:07;42.15;;;26.42;;
25503;SDS011;13410;52.114;5.718;2024-03-06T02:48:33;41.10;;;25.52;;
25503;SDS011;13410;52.114;5.718;2024-03-06T02:50:59;41.22;;;26.92;;
25503;SDS011;13410;52.114;5.718;2024-03-06T02:53:25;42.38;;;26.02;;
25503;SDS011;13410;52.114;5.718;2024-03-06T02:55:51;44.30;;;25.85;;
25503;SDS011;13410;52.114;5.718;2024-03-06T02:58:17;41.05;;;25.48;;
25503;SDS011;13410;52.114;5.718;2024-03-06T03:00:43;43.53;;;27.27;;
25503;SDS011;13410;52.114;5.718;2024-03-06T03:03:09;44.83;;;27.27;;
25503;SDS011;13410;52.114;5.718;2024-03-06T03:05:37;40.10;;;25.40;;
25503;SDS011;13410;52.114;5.718;2024-03-06T03:08:03;42.63;;;26.25;;
25503;SDS011;13410;52.114;5.718;2024-03-06T03:10:29;41.60;;;25.58;;
25503;SDS011;13410;52.114;5.718;2024-03-06T03:12:54;39.75;;;26.17;;
25503;SDS011;13410;52.114;5.718;2024-03-06T03:15:20;40.40;;;24.83;;
25503;SDS011;13410;52.114;5.718;2024-03-06T03:17:46;41.95;;;24.88;;
25503;SDS011;13410;52.114;5.718;2024-03-06T03:20:12;41.22;;;24.50;;
25503;SDS011;13410;52.114;5.718;2024-03-06T03:22:38;42.00;;;26.10;;
25503;SDS011;13410;52.114;5.718;2024-03-06T03:25:10;42.38;;;24.85;;
25503;SDS011;13410;52.114;5.718;2024-03-06T03:27:37;42.60;;;25.65;;
25503;SDS011;13410;52.114;5.718;2024-03-06T03:30:06;40.03;;;24.48;;
25503;SDS011;13410;52.114;5.718;2024-03-06T03:32:33;43.67;;;25.30;;
25503;SDS011;13410;52.114;5.718;2024-03-06T03:34:59;41.00;;;25.25;;
25503;SDS011;13410;52.114;5.718;2024-03-06T03:37:24;42.83;;;26.35;;
25503;SDS011;13410;52.114;5.718;2024-03-06T03:39:53;38.25;;;23.90;;
25503;SDS011;13410;52.114;5.718;2024-03-06T03:42:19;41.63;;;25.27;;
25503;SDS011;13410;52.114;5.718;2024-03-06T03:44:45;41.00;;;25.17;;
25503;SDS011;13410;52.114;5.718;2024-03-06T03:47:10;41.17;;;24.83;;
25503;SDS011;13410;52.114;5.718;2024-03-06T03:49:37;43.90;;;26.35;;
25503;SDS011;13410;52.114;5.718;2024-03-06T03:52:03;46.78;;;26.45;;
25503;SDS011;13410;52.114;5.718;2024-03-06T03:54:28;47.70;;;27.17;;
25503;SDS011;13410;52.114;5.718;2024-03-06T03:56:54;43.30;;;26.48;;
25503;SDS011;13410;52.114;5.718;2024-03-06T03:59:19;44.92;;;26.17;;
25503;SDS011;13410;52.114;5.718;2024-03-06T04:01:45;44.00;;;26.58;;
25503;SDS011;13410;52.114;5.718;2024-03-06T04:04:15;41.53;;;26.35;;
25503;SDS011;13410;52.114;5.718;2024-03-06T04:06:40;43.00;;;26.08;;
25503;SDS011;13410;52.114;5.718;2024-03-06T04:09:06;42.78;;;25.92;;
25503;SDS011;13410;52.114;5.718;2024-03-06T04:11:35;42.03;;;25.23;;
25503;SDS011;13410;52.114;5.718;2024-03-06T04:14:04;42.67;;;26.50;;
25503;SDS011;13410;52.114;5.718;2024-03-06T04:16:33;42.97;;;25.58;;
25503;SDS011;13410;52.114;5.718;2024-03-06T04:18:59;67.03;;;25.58;;
25503;SDS011;13410;52.114;5.718;2024-03-06T04:21:24;147.35;;;29.17;;
25503;SDS011;13410;52.114;5.718;2024-03-06T04:23:50;86.47;;;25.90;;
25503;SDS011;13410;52.114;5.718;2024-03-06T04:26:16;112.30;;;27.25;;
25503;SDS011;13410;52.114;5.718;2024-03-06T04:28:42;334.55;;;32.95;;
25503;SDS011;13410;52.114;5.718;2024-03-06T04:31:08;466.52;;;38.00;;
25503;SDS011;13410;52.114;5.718;2024-03-06T04:33:34;416.48;;;35.63;;
25503;SDS011;13410;52.114;5.718;2024-03-06T04:36:02;310.90;;;32.78;;
25503;SDS011;13410;52.114;5.718;2024-03-06T04:38:30;171.85;;;29.80;;
25503;SDS011;13410;52.114;5.718;2024-03-06T04:40:56;235.13;;;29.45;;
25503;SDS011;13410;52.114;5.718;2024-03-06T04:43:22;260.15;;;28.30;;
25503;SDS011;13410;52.114;5.718;2024-03-06T04:45:47;220.18;;;26.92;;
25503;SDS011;13410;52.114;5.718;2024-03-06T04:48:13;274.98;;;28.98;;
25503;SDS011;13410;52.114;5.718;2024-03-06T04:50:38;174.05;;;27.25;;
25503;SDS011;13410;52.114;5.718;2024-03-06T04:53:04;242.80;;;29.02;;
25503;SDS011;13410;52.114;5.718;2024-03-06T04:55:31;255.02;;;29.17;;
25503;SDS011;13410;52.114;5.718;2024-03-06T04:57:56;207.70;;;25.13;;
25503;SDS011;13410;52.114;5.718;2024-03-06T05:00:22;195.48;;;26.23;;
25503;SDS011;13410;52.114;5.718;2024-03-06T05:02:48;236.48;;;25.13;;
25503;SDS011;13410;52.114;5.718;2024-03-06T05:05:14;174.68;;;24.92;;
25503;SDS011;13410;52.114;5.718;2024-03-06T05:07:40;221.73;;;28.52;;
25503;SDS011;13410;52.114;5.718;2024-03-06T05:10:06;149.88;;;25.15;;
25503;SDS011;13410;52.114;5.718;2024-03-06T05:12:32;226.30;;;25.65;;
25503;SDS011;13410;52.114;5.718;2024-03-06T05:14:59;138.15;;;22.23;;
25503;SDS011;13410;52.114;5.718;2024-03-06T05:17:25;99.85;;;21.80;;
25503;SDS011;13410;52.114;5.718;2024-03-06T05:19:50;156.02;;;24.45;;
25503;SDS011;13410;52.114;5.718;2024-03-06T05:22:16;77.40;;;23.90;;
25503;SDS011;13410;52.114;5.718;2024-03-06T05:24:42;57.88;;;21.13;;
25503;SDS011;13410;52.114;5.718;2024-03-06T05:27:09;54.67;;;20.02;;
25503;SDS011;13410;52.114;5.718;2024-03-06T05:29:38;35.50;;;19.80;;
25503;SDS011;13410;52.114;5.718;2024-03-06T05:32:04;30.23;;;20.95;;
25503;SDS011;13410;52.114;5.718;2024-03-06T05:34:32;32.90;;;21.73;;
25503;SDS011;13410;52.114;5.718;2024-03-06T05:37:00;32.92;;;22.00;;
25503;SDS011;13410;52.114;5.718;2024-03-06T05:39:30;30.97;;;20.40;;
25503;SDS011;13410;52.114;5.718;2024-03-06T05:41:59;29.70;;;19.98;;
25503;SDS011;13410;52.114;5.718;2024-03-06T05:44:28;27.17;;;18.95;;
25503;SDS011;13410;52.114;5.718;2024-03-06T05:46:54;28.05;;;18.92;;
25503;SDS011;13410;52.114;5.718;2024-03-06T05:49:19;27.25;;;18.65;;
25503;SDS011;13410;52.114;5.718;2024-03-06T05:51:45;28.38;;;17.98;;
25503;SDS011;13410;52.114;5.718;2024-03-06T05:54:11;30.23;;;19.55;;
25503;SDS011;13410;52.114;5.718;2024-03-06T05:56:36;28.98;;;19.55;;
25503;SDS011;13410;52.114;5.718;2024-03-06T05:59:03;28.48;;;20.10;;
25503;SDS011;13410;52.114;5.718;2024-03-06T06:01:32;30.10;;;19.02;;
25503;SDS011;13410;52.114;5.718;2024-03-06T06:03:58;28.23;;;19.20;;
25503;SDS011;13410;52.114;5.718;2024-03-06T06:06:25;29.70;;;19.63;;
25503;SDS011;13410;52.114;5.718;2024-03-06T06:08:51;31.60;;;20.05;;
25503;SDS011;13410;52.114;5.718;2024-03-06T06:11:16;31.08;;;20.20;;
25503;SDS011;13410;52.114;5.718;2024-03-06T06:13:42;33.15;;;21.15;;
25503;SDS011;13410;52.114;5.718;2024-03-06T06:16:08;31.75;;;20.92;;
25503;SDS011;13410;52.114;5.718;2024-03-06T06:18:34;35.20;;;21.52;;
25503;SDS011;13410;52.114;5.718;2024-03-06T06:20:59;39.15;;;22.77;;
25503;SDS011;13410;52.114;5.718;2024-03-06T06:23:25;34.80;;;22.50;;
25503;SDS011;13410;52.114;5.718;2024-03-06T06:25:52;36.67;;;23.08;;
25503;SDS011;13410;52.114;5.718;2024-03-06T06:28:18;40.15;;;23.90;;
25503;SDS011;13410;52.114;5.718;2024-03-06T06:30:43;41.35;;;24.50;;
25503;SDS011;13410;52.114;5.718;2024-03-06T06:33:10;43.60;;;25.27;;
25503;SDS011;13410;52.114;5.718;2024-03-06T06:35:38;44.40;;;24.90;;
25503;SDS011;13410;52.114;5.718;2024-03-06T06:38:03;45.88;;;26.73;;
25503;SDS011;13410;52.114;5.718;2024-03-06T06:40:30;46.90;;;27.30;;
25503;SDS011;13410;52.114;5.718;2024-03-06T06:42:55;47.83;;;27.35;;
25503;SDS011;13410;52.114;5.718;2024-03-06T06:45:21;50.78;;;27.77;;
25503;SDS011;13410;52.114;5.718;2024-03-06T06:47:47;53.55;;;26.80;;
25503;SDS011;13410;52.114;5.718;2024-03-06T06:50:14;47.42;;;26.42;;
25503;SDS011;13410;52.114;5.718;2024-03-06T06:52:40;46.47;;;27.20;;
25503;SDS011;13410;52.114;5.718;2024-03-06T06:55:06;51.10;;;27.98;;
25503;SDS011;13410;52.114;5.718;2024-03-06T06:57:34;47.05;;;26.92;;
25503;SDS011;13410;52.114;5.718;2024-03-06T07:00:00;44.45;;;26.42;;
25503;SDS011;13410;52.114;5.718;2024-03-06T07:04:58;47.45;;;27.08;;
25503;SDS011;13410;52.114;5.718;2024-03-06T07:07:24;45.92;;;26.70;;
25503;SDS011;13410;52.114;5.718;2024-03-06T07:09:50;46.10;;;26.58;;
25503;SDS011;13410;52.114;5.718;2024-03-06T07:12:15;43.42;;;25.45;;
25503;SDS011;13410;52.114;5.718;2024-03-06T07:14:42;40.28;;;25.13;;
25503;SDS011;13410;52.114;5.718;2024-03-06T07:17:08;48.05;;;28.95;;
25503;SDS011;13410;52.114;5.718;2024-03-06T07:19:33;49.45;;;28.95;;
25503;SDS011;13410;52.114;5.718;2024-03-06T07:21:59;47.80;;;27.85;;
25503;SDS011;13410;52.114;5.718;2024-03-06T07:24:25;55.25;;;31.60;;
25503;SDS011;13410;52.114;5.718;2024-03-06T07:26:50;51.47;;;31.23;;
25503;SDS011;13410;52.114;5.718;2024-03-06T07:29:16;50.25;;;29.98;;
25503;SDS011;13410;52.114;5.718;2024-03-06T07:31:42;45.38;;;27.92;;
25503;SDS011;13410;52.114;5.718;2024-03-06T07:34:09;44.88;;;27.38;;
25503;SDS011;13410;52.114;5.718;2024-03-06T07:36:35;47.55;;;29.88;;
25503;SDS011;13410;52.114;5.718;2024-03-06T07:39:01;51.80;;;34.10;;
25503;SDS011;13410;52.114;5.718;2024-03-06T07:41:29;58.80;;;36.10;;
25503;SDS011;13410;52.114;5.718;2024-03-06T07:43:54;79.45;;;47.38;;
25503;SDS011;13410;52.114;5.718;2024-03-06T07:46:20;121.03;;;70.40;;
25503;SDS011;13410;52.114;5.718;2024-03-06T07:48:46;100.82;;;58.33;;
25503;SDS011;13410;52.114;5.718;2024-03-06T07:51:11;131.30;;;69.13;;
25503;SDS011;13410;52.114;5.718;2024-03-06T07:53:38;169.50;;;90.40;;
25503;SDS011;13410;52.114;5.718;2024-03-06T07:56:04;216.68;;;112.45;;
25503;SDS011;13410;52.114;5.718;2024-03-06T07:58:30;123.75;;;64.60;;
25503;SDS011;13410;52.114;5.718;2024-03-06T08:00:56;199.25;;;99.47;;
25503;SDS011;13410;52.114;5.718;2024-03-06T08:03:23;149.43;;;80.53;;
25503;SDS011;13410;52.114;5.718;2024-03-06T08:05:52;167.93;;;87.97;;
25503;SDS011;13410;52.114;5.718;2024-03-06T08:08:18;113.75;;;60.97;;
25503;SDS011;13410;52.114;5.718;2024-03-06T08:10:44;102.25;;;56.67;;
25503;SDS011;13410;52.114;5.718;2024-03-06T08:13:12;105.63;;;71.63;;
25503;SDS011;13410;52.114;5.718;2024-03-06T08:15:38;88.70;;;56.83;;
25503;SDS011;13410;52.114;5.718;2024-03-06T08:18:05;70.10;;;46.10;;
25503;SDS011;13410;52.114;5.718;2024-03-06T08:20:31;62.28;;;35.40;;
25503;SDS011;13410;52.114;5.718;2024-03-06T08:22:57;64.45;;;41.25;;
25503;SDS011;13410;52.114;5.718;2024-03-06T08:25:23;61.97;;;35.92;;
25503;SDS011;13410;52.114;5.718;2024-03-06T08:27:49;79.43;;;46.88;;
25503;SDS011;13410;52.114;5.718;2024-03-06T08:30:14;62.35;;;38.00;;
25503;SDS011;13410;52.114;5.718;2024-03-06T08:32:41;86.43;;;54.10;;
25503;SDS011;13410;52.114;5.718;2024-03-06T08:35:09;65.43;;;40.75;;
25503;SDS011;13410;52.114;5.718;2024-03-06T08:37:39;61.13;;;36.10;;
25503;SDS011;13410;52.114;5.718;2024-03-06T08:40:06;67.25;;;41.97;;
25503;SDS011;13410;52.114;5.718;2024-03-06T08:42:32;59.85;;;34.03;;
25503;SDS011;13410;52.114;5.718;2024-03-06T08:44:58;68.72;;;40.88;;
25503;SDS011;13410;52.114;5.718;2024-03-06T08:47:24;67.47;;;38.55;;
25503;SDS011;13410;52.114;5.718;2024-03-06T08:49:49;63.67;;;33.88;;
25503;SDS011;13410;52.114;5.718;2024-03-06T08:52:15;58.08;;;35.65;;
25503;SDS011;13410;52.114;5.718;2024-03-06T08:54:41;57.50;;;33.67;;
25503;SDS011;13410;52.114;5.718;2024-03-06T08:57:07;51.80;;;31.00;;
25503;SDS011;13410;52.114;5.718;2024-03-06T08:59:33;59.03;;;33.30;;
25503;SDS011;13410;52.114;5.718;2024-03-06T09:02:10;69.10;;;41.05;;
25503;SDS011;13410;52.114;5.718;2024-03-06T09:04:41;61.05;;;33.65;;
25503;SDS011;13410;52.114;5.718;2024-03-06T09:07:07;56.38;;;33.60;;
25503;SDS011;13410;52.114;5.718;2024-03-06T09:09:37;55.78;;;32.50;;
25503;SDS011;13410;52.114;5.718;2024-03-06T09:12:05;50.83;;;30.23;;
25503;SDS011;13410;52.114;5.718;2024-03-06T09:14:34;53.83;;;31.70;;
25503;SDS011;13410;52.114;5.718;2024-03-06T09:17:01;51.35;;;29.58;;
25503;SDS011;13410;52.114;5.718;2024-03-06T09:19:28;56.75;;;30.95;;
25503;SDS011;13410;52.114;5.718;2024-03-06T09:21:54;50.67;;;29.25;;
25503;SDS011;13410;52.114;5.718;2024-03-06T09:24:20;49.13;;;29.40;;
25503;SDS011;13410;52.114;5.718;2024-03-06T09:26:47;45.95;;;27.73;;
25503;SDS011;13410;52.114;5.718;2024-03-06T09:29:14;46.75;;;28.05;;
25503;SDS011;13410;52.114;5.718;2024-03-06T09:31:40;47.97;;;28.50;;
25503;SDS011;13410;52.114;5.718;2024-03-06T09:34:06;46.38;;;27.67;;
25503;SDS011;13410;52.114;5.718;2024-03-06T09:36:32;50.45;;;29.42;;
25503;SDS011;13410;52.114;5.718;2024-03-06T09:38:58;52.72;;;28.65;;
25503;SDS011;13410;52.114;5.718;2024-03-06T09:41:24;48.08;;;27.95;;
25503;SDS011;13410;52.114;5.718;2024-03-06T09:43:50;48.10;;;28.48;;
25503;SDS011;13410;52.114;5.718;2024-03-06T09:46:17;47.28;;;27.35;;
25503;SDS011;13410;52.114;5.718;2024-03-06T09:48:46;45.08;;;27.67;;
25503;SDS011;13410;52.114;5.718;2024-03-06T09:51:13;45.85;;;25.77;;
25503;SDS011;13410;52.114;5.718;2024-03-06T09:53:41;44.67;;;27.85;;
25503;SDS011;13410;52.114;5.718;2024-03-06T09:56:09;45.22;;;27.10;;
25503;SDS011;13410;52.114;5.718;2024-03-06T09:58:35;42.67;;;26.20;;
25503;SDS011;13410;52.114;5.718;2024-03-06T10:01:01;44.75;;;26.90;;
25503;SDS011;13410;52.114;5.718;2024-03-06T10:03:29;47.40;;;26.52;;
25503;SDS011;13410;52.114;5.718;2024-03-06T10:05:55;45.33;;;27.38;;
25503;SDS011;13410;52.114;5.718;2024-03-06T10:08:21;38.63;;;24.77;;
25503;SDS011;13410;52.114;5.718;2024-03-06T10:10:50;41.65;;;25.73;;
25503;SDS011;13410;52.114;5.718;2024-03-06T10:13:22;41.42;;;24.73;;
25503;SDS011;13410;52.114;5.718;2024-03-06T10:16:22;40.60;;;24.77;;
25503;SDS011;13410;52.114;5.718;2024-03-06T10:18:41;42.53;;;25.70;;
25503;SDS011;13410;52.114;5.718;2024-03-06T10:21:07;42.58;;;24.25;;
25503;SDS011;13410;52.114;5.718;2024-03-06T10:23:34;40.08;;;23.80;;
25503;SDS011;13410;52.114;5.718;2024-03-06T10:26:00;41.70;;;25.45;;
25503;SDS011;13410;52.114;5.718;2024-03-06T10:28:25;45.25;;;25.55;;
25503;SDS011;13410;52.114;5.718;2024-03-06T10:31:02;39.30;;;24.95;;
25503;SDS011;13410;52.114;5.718;2024-03-06T10:33:31;42.53;;;24.73;;
25503;SDS011;13410;52.114;5.718;2024-03-06T10:35:57;45.25;;;26.35;;
25503;SDS011;13410;52.114;5.718;2024-03-06T10:38:23;41.55;;;25.63;;
25503;SDS011;13410;52.114;5.718;2024-03-06T10:40:53;43.08;;;26.13;;
25503;SDS011;13410;52.114;5.718;2024-03-06T10:43:19;43.95;;;27.13;;
25503;SDS011;13410;52.114;5.718;2024-03-06T10:45:48;47.28;;;26.88;;
25503;SDS011;13410;52.114;5.718;2024-03-06T10:48:18;42.45;;;26.25;;
25503;SDS011;13410;52.114;5.718;2024-03-06T10:50:45;45.53;;;26.38;;
25503;SDS011;13410;52.114;5.718;2024-03-06T10:53:13;47.33;;;28.52;;
25503;SDS011;13410;52.114;5.718;2024-03-06T10:55:40;81.45;;;51.75;;
25503;SDS011;13410;52.114;5.718;2024-03-06T10:58:10;48.85;;;33.47;;
25503;SDS011;13410;52.114;5.718;2024-03-06T11:00:40;48.42;;;30.42;;
25503;SDS011;13410;52.114;5.718;2024-03-06T11:03:08;45.78;;;27.98;;
25503;SDS011;13410;52.114;5.718;2024-03-06T11:05:38;43.70;;;25.75;;
25503;SDS011;13410;52.114;5.718;2024-03-06T11:08:14;43.13;;;26.05;;
25503;SDS011;13410;52.114;5.718;2024-03-06T11:10:42;40.20;;;24.42;;
25503;SDS011;13410;52.114;5.718;2024-03-06T11:15:47;38.70;;;23.15;;
25503;SDS011;13410;52.114;5.718;2024-03-06T11:23:33;39.58;;;23.67;;
25503;SDS011;13410;52.114;5.718;2024-03-06T11:26:03;39.17;;;23.33;;
25503;SDS011;13410;52.114;5.718;2024-03-06T11:28:30;39.47;;;23.95;;
25503;SDS011;13410;52.114;5.718;2024-03-06T11:31:02;39.95;;;23.48;;
25503;SDS011;13410;52.114;5.718;2024-03-06T11:41:13;36.28;;;21.80;;
25503;SDS011;13410;52.114;5.718;2024-03-06T11:43:42;38.78;;;21.92;;
25503;SDS011;13410;52.114;5.718;2024-03-06T11:46:08;36.00;;;21.05;;
25503;SDS011;13410;52.114;5.718;2024-03-06T11:48:35;35.35;;;20.58;;
25503;SDS011;13410;52.114;5.718;2024-03-06T11:51:02;33.53;;;20.00;;
25503;SDS011;13410;52.114;5.718;2024-03-06T11:53:28;31.48;;;19.33;;
25503;SDS011;13410;52.114;5.718;2024-03-06T11:55:55;35.33;;;19.70;;
25503;SDS011;13410;52.114;5.718;2024-03-06T11:58:21;30.35;;;18.50;;
25503;SDS011;13410;52.114;5.718;2024-03-06T12:00:52;34.40;;;19.80;;
25503;SDS011;13410;52.114;5.718;2024-03-06T12:03:19;31.02;;;18.27;;
25503;SDS011;13410;52.114;5.718;2024-03-06T12:05:45;29.58;;;17.02;;
25503;SDS011;13410;52.114;5.718;2024-03-06T12:08:12;34.90;;;18.77;;
25503;SDS011;13410;52.114;5.718;2024-03-06T12:10:38;30.60;;;17.23;;
25503;SDS011;13410;52.114;5.718;2024-03-06T12:13:04;27.85;;;15.82;;
25503;SDS011;13410;52.114;5.718;2024-03-06T12:15:30;22.30;;;14.70;;
25503;SDS011;13410;52.114;5.718;2024-03-06T12:17:56;27.63;;;17.00;;
25503;SDS011;13410;52.114;5.718;2024-03-06T12:20:23;28.13;;;16.80;;
25503;SDS011;13410;52.114;5.718;2024-03-06T12:22:50;29.08;;;17.08;;
25503;SDS011;13410;52.114;5.718;2024-03-06T12:25:20;32.47;;;19.23;;
25503;SDS011;13410;52.114;5.718;2024-03-06T12:27:46;28.33;;;16.92;;
25503;SDS011;13410;52.114;5.718;2024-03-06T12:30:12;25.25;;;15.52;;
25503;SDS011;13410;52.114;5.718;2024-03-06T12:32:43;37.23;;;22.33;;
25503;SDS011;13410;52.114;5.718;2024-03-06T12:35:09;37.63;;;23.45;;
25503;SDS011;13410;52.114;5.718;2024-03-06T12:37:34;30.77;;;17.55;;
25503;SDS011;13410;52.114;5.718;2024-03-06T12:40:00;23.95;;;14.45;;
25503;SDS011;13410;52.114;5.718;2024-03-06T12:42:29;28.40;;;16.55;;
25503;SDS011;13410;52.114;5.718;2024-03-06T12:44:55;25.05;;;15.38;;
25503;SDS011;13410;52.114;5.718;2024-03-06T12:47:20;26.73;;;16.38;;
25503;SDS011;13410;52.114;5.718;2024-03-06T12:49:46;29.45;;;20.20;;
25503;SDS011;13410;52.114;5.718;2024-03-06T12:52:12;25.38;;;15.85;;
25503;SDS011;13410;52.114;5.718;2024-03-06T12:54:39;24.58;;;15.15;;
25503;SDS011;13410;52.114;5.718;2024-03-06T12:57:04;25.67;;;15.38;;
25503;SDS011;13410;52.114;5.718;2024-03-06T12:59:30;23.98;;;14.73;;
25503;SDS011;13410;52.114;5.718;2024-03-06T13:01:56;24.55;;;14.32;;
25503;SDS011;13410;52.114;5.718;2024-03-06T13:04:22;25.60;;;14.75;;
25503;SDS011;13410;52.114;5.718;2024-03-06T13:06:47;22.73;;;13.43;;
25503;SDS011;13410;52.114;5.718;2024-03-06T13:09:13;20.42;;;12.75;;
25503;SDS011;13410;52.114;5.718;2024-03-06T13:11:39;24.63;;;13.70;;
25503;SDS011;13410;52.114;5.718;2024-03-06T13:14:07;26.10;;;13.40;;
25503;SDS011;13410;52.114;5.718;2024-03-06T13:16:35;18.38;;;12.25;;
25503;SDS011;13410;52.114;5.718;2024-03-06T13:19:01;22.15;;;13.25;;
25503;SDS011;13410;52.114;5.718;2024-03-06T13:21:28;22.42;;;13.20;;
25503;SDS011;13410;52.114;5.718;2024-03-06T13:23:54;22.67;;;14.38;;
25503;SDS011;13410;52.114;5.718;2024-03-06T13:26:19;23.45;;;15.00;;
25503;SDS011;13410;52.114;5.718;2024-03-06T13:28:46;25.08;;;14.38;;
25503;SDS011;13410;52.114;5.718;2024-03-06T13:31:13;20.80;;;13.55;;
25503;SDS011;13410;52.114;5.718;2024-03-06T13:33:38;23.52;;;15.07;;
25503;SDS011;13410;52.114;5.718;2024-03-06T13:36:04;22.17;;;13.75;;
25503;SDS011;13410;52.114;5.718;2024-03-06T13:38:29;23.98;;;13.20;;
25503;SDS011;13410;52.114;5.718;2024-03-06T13:40:55;20.70;;;12.48;;
25503;SDS011;13410;52.114;5.718;2024-03-06T13:43:21;19.40;;;12.48;;
25503;SDS011;13410;52.114;5.718;2024-03-06T13:45:51;20.67;;;12.13;;
25503;SDS011;13410;52.114;5.718;2024-03-06T13:48:18;18.58;;;11.63;;
25503;SDS011;13410;52.114;5.718;2024-03-06T13:50:44;20.23;;;12.10;;
25503;SDS011;13410;52.114;5.718;2024-03-06T13:53:10;23.33;;;14.07;;
25503;SDS011;13410;52.114;5.718;2024-03-06T13:55:36;25.38;;;15.75;;
25503;SDS011;13410;52.114;5.718;2024-03-06T13:58:02;22.55;;;14.43;;
25503;SDS011;13410;52.114;5.718;2024-03-06T14:00:29;22.88;;;14.77;;
25503;SDS011;13410;52.114;5.718;2024-03-06T14:02:54;25.48;;;14.15;;
25503;SDS011;13410;52.114;5.718;2024-03-06T14:05:20;21.80;;;14.25;;
25503;SDS011;13410;52.114;5.718;2024-03-06T14:07:53;23.25;;;14.82;;
25503;SDS011;13410;52.114;5.718;2024-03-06T14:10:18;22.80;;;14.38;;
25503;SDS011;13410;52.114;5.718;2024-03-06T14:12:46;24.10;;;14.25;;
25503;SDS011;13410;52.114;5.718;2024-03-06T14:15:12;25.63;;;15.05;;
25503;SDS011;13410;52.114;5.718;2024-03-06T14:17:39;23.30;;;14.98;;
25503;SDS011;13410;52.114;5.718;2024-03-06T14:20:05;22.42;;;14.43;;
25503;SDS011;13410;52.114;5.718;2024-03-06T14:22:31;22.00;;;13.82;;
25503;SDS011;13410;52.114;5.718;2024-03-06T14:24:57;20.23;;;13.13;;
25503;SDS011;13410;52.114;5.718;2024-03-06T14:27:22;16.02;;;11.35;;
25503;SDS011;13410;52.114;5.718;2024-03-06T14:29:48;20.17;;;11.88;;
25503;SDS011;13410;52.114;5.718;2024-03-06T14:32:14;17.83;;;11.43;;
25503;SDS011;13410;52.114;5.718;2024-03-06T14:34:42;17.77;;;10.70;;